sensor_id;sensor_type;location;lat;lon;timestamp;noise_LAeq;noise_LA_min;noise_LA_max;noise_LA01;noise_LA95
76382;Laerm;65202;52.520;10.528;2023-08-21T00:01:59;39.33;31.82;52.23;;
76382;Laerm;65202;52.520;10.528;2023-08-21T00:04:26;39.59;31.97;53.33;;
76382;Laerm;65202;52.520;10.528;2023-08-21T00:06:53;39.55;31.71;51.80;;
76382;Laerm;65202;52.520;10.528;2023-08-21T00:09:21;39.55;31.76;53.19;;
76382;Laerm;65202;52.520;10.528;2023-08-21T00:11:48;39.58;32.18;52.28;;
76382;Laerm;65202;52.520;10.528;2023-08-21T00:14:15;39.56;33.33;53.18;;
76382;Laerm;65202;52.520;10.528;2023-08-21T00:16:42;39.55;32.97;51.62;;
76382;Laerm;65202;52.520;10.528;2023-08-21T00:19:10;39.42;32.22;52.85;;
76382;Laerm;65202;52.520;10.528;2023-08-21T00:21:37;39.40;31.97;52.71;;
76382;Laerm;65202;52.520;10.528;2023-08-21T00:24:04;39.53;31.96;52.53;;
76382;Laerm;65202;52.520;10.528;2023-08-21T00:26:32;39.36;32.08;52.20;;
76382;Laerm;65202;52.520;10.528;2023-08-21T00:28:59;39.54;32.17;52.59;;
76382;Laerm;65202;52.520;10.528;2023-08-21T00:31:26;39.73;31.88;52.37;;
76382;Laerm;65202;52.520;10.528;2023-08-21T00:33:53;40.46;32.23;52.24;;
76382;Laerm;65202;52.520;10.528;2023-08-21T00:36:21;39.73;32.42;51.98;;
76382;Laerm;65202;52.520;10.528;2023-08-21T00:38:48;39.54;32.05;53.36;;
76382;Laerm;65202;52.520;10.528;2023-08-21T00:41:15;39.67;32.33;52.90;;
76382;Laerm;65202;52.520;10.528;2023-08-21T00:43:43;39.38;31.61;51.87;;
76382;Laerm;65202;52.520;10.528;2023-08-21T00:46:10;39.54;31.73;52.75;;
76382;Laerm;65202;52.520;10.528;2023-08-21T00:48:37;39.61;31.39;54.33;;
76382;Laerm;65202;52.520;10.528;2023-08-21T00:51:05;39.47;32.25;51.78;;
76382;Laerm;65202;52.520;10.528;2023-08-21T00:53:34;39.42;31.88;51.89;;
76382;Laerm;65202;52.520;10.528;2023-08-21T00:56:02;39.43;31.94;52.04;;
76382;Laerm;65202;52.520;10.528;2023-08-21T00:58:30;39.34;32.22;52.80;;
76382;Laerm;65202;52.520;10.528;2023-08-21T01:00:57;39.55;32.09;52.25;;
76382;Laerm;65202;52.520;10.528;2023-08-21T01:03:25;39.31;32.38;51.92;;
76382;Laerm;65202;52.520;10.528;2023-08-21T01:05:54;39.39;31.73;52.40;;
76382;Laerm;65202;52.520;10.528;2023-08-21T01:16:37;39.22;31.76;52.09;;
76382;Laerm;65202;52.520;10.528;2023-08-21T01:19:19;39.21;31.75;51.51;;
76382;Laerm;65202;52.520;10.528;2023-08-21T01:21:52;39.21;31.81;51.70;;
76382;Laerm;65202;52.520;10.528;2023-08-21T01:24:20;39.38;32.03;51.15;;
76382;Laerm;65202;52.520;10.528;2023-08-21T01:26:47;39.42;32.12;50.66;;
76382;Laerm;65202;52.520;10.528;2023-08-21T01:29:14;39.44;32.01;51.34;;
76382;Laerm;65202;52.520;10.528;2023-08-21T01:31:51;39.26;32.09;52.44;;
76382;Laerm;65202;52.520;10.528;2023-08-21T01:34:20;39.24;31.70;51.00;;
76382;Laerm;65202;52.520;10.528;2023-08-21T01:36:48;39.51;32.18;51.51;;
76382;Laerm;65202;52.520;10.528;2023-08-21T01:39:16;39.62;32.30;57.45;;
76382;Laerm;65202;52.520;10.528;2023-08-21T01:41:43;39.25;31.79;51.41;;
76382;Laerm;65202;52.520;10.528;2023-08-21T01:44:11;39.87;32.21;52.17;;
76382;Laerm;65202;52.520;10.528;2023-08-21T01:46:38;40.25;32.21;51.18;;
76382;Laerm;65202;52.520;10.528;2023-08-21T01:49:05;39.42;32.15;52.07;;
76382;Laerm;65202;52.520;10.528;2023-08-21T01:51:32;39.43;31.96;52.41;;
76382;Laerm;65202;52.520;10.528;2023-08-21T01:54:00;39.38;32.10;51.88;;
76382;Laerm;65202;52.520;10.528;2023-08-21T01:56:27;39.59;32.08;52.71;;
76382;Laerm;65202;52.520;10.528;2023-08-21T01:58:54;39.36;32.27;51.72;;
76382;Laerm;65202;52.520;10.528;2023-08-21T02:01:21;39.42;32.03;52.79;;
76382;Laerm;65202;52.520;10.528;2023-08-21T02:03:51;39.61;32.42;52.41;;
76382;Laerm;65202;52.520;10.528;2023-08-21T02:06:18;39.45;31.84;54.65;;
76382;Laerm;65202;52.520;10.528;2023-08-21T02:08:45;39.76;32.22;51.93;;
76382;Laerm;65202;52.520;10.528;2023-08-21T02:11:12;39.38;32.35;51.26;;
76382;Laerm;65202;52.520;10.528;2023-08-21T02:13:40;39.69;31.78;52.21;;
76382;Laerm;65202;52.520;10.528;2023-08-21T02:16:07;39.41;32.66;52.41;;
76382;Laerm;65202;52.520;10.528;2023-08-21T02:18:34;40.05;33.14;60.78;;
76382;Laerm;65202;52.520;10.528;2023-08-21T02:21:02;39.62;32.59;52.01;;
76382;Laerm;65202;52.520;10.528;2023-08-21T02:23:29;39.58;32.69;52.18;;
76382;Laerm;65202;52.520;10.528;2023-08-21T02:25:57;39.52;32.04;53.49;;
76382;Laerm;65202;52.520;10.528;2023-08-21T02:28:24;39.87;32.85;51.93;;
76382;Laerm;65202;52.520;10.528;2023-08-21T02:30:51;39.47;32.43;51.63;;
76382;Laerm;65202;52.520;10.528;2023-08-21T02:33:18;39.69;32.50;52.27;;
76382;Laerm;65202;52.520;10.528;2023-08-21T02:35:46;39.47;32.33;52.07;;
76382;Laerm;65202;52.520;10.528;2023-08-21T02:38:13;42.60;32.18;54.90;;
76382;Laerm;65202;52.520;10.528;2023-08-21T02:40:40;39.68;33.71;52.51;;
76382;Laerm;65202;52.520;10.528;2023-08-21T02:43:07;39.88;32.73;52.43;;
76382;Laerm;65202;52.520;10.528;2023-08-21T02:45:35;39.71;32.43;52.22;;
76382;Laerm;65202;52.520;10.528;2023-08-21T02:48:02;39.87;32.64;57.46;;
76382;Laerm;65202;52.520;10.528;2023-08-21T02:50:29;43.40;33.01;73.16;;
76382;Laerm;65202;52.520;10.528;2023-08-21T02:52:57;39.71;32.92;51.64;;
76382;Laerm;65202;52.520;10.528;2023-08-21T02:55:24;40.55;34.52;51.50;;
76382;Laerm;65202;52.520;10.528;2023-08-21T02:57:51;40.24;33.00;55.14;;
76382;Laerm;65202;52.520;10.528;2023-08-21T03:00:18;41.35;33.55;61.16;;
76382;Laerm;65202;52.520;10.528;2023-08-21T03:02:46;40.45;34.48;53.15;;
76382;Laerm;65202;52.520;10.528;2023-08-21T03:05:13;40.01;34.08;53.58;;
76382;Laerm;65202;52.520;10.528;2023-08-21T03:07:41;40.02;34.77;52.10;;
76382;Laerm;65202;52.520;10.528;2023-08-21T03:10:09;40.25;34.78;51.46;;
76382;Laerm;65202;52.520;10.528;2023-08-21T03:12:36;40.28;34.58;53.57;;
76382;Laerm;65202;52.520;10.528;2023-08-21T03:15:04;40.41;34.61;51.71;;
76382;Laerm;65202;52.520;10.528;2023-08-21T03:17:32;40.80;35.22;52.12;;
76382;Laerm;65202;52.520;10.528;2023-08-21T03:19:59;40.35;35.14;52.09;;
76382;Laerm;65202;52.520;10.528;2023-08-21T03:22:27;40.49;35.39;51.73;;
76382;Laerm;65202;52.520;10.528;2023-08-21T03:24:54;40.79;35.21;52.55;;
76382;Laerm;65202;52.520;10.528;2023-08-21T03:27:21;43.06;36.75;58.75;;
76382;Laerm;65202;52.520;10.528;2023-08-21T03:29:49;42.68;36.34;52.03;;
76382;Laerm;65202;52.520;10.528;2023-08-21T03:32:17;44.63;36.23;58.69;;
76382;Laerm;65202;52.520;10.528;2023-08-21T03:34:45;43.12;36.57;54.44;;
76382;Laerm;65202;52.520;10.528;2023-08-21T03:37:12;42.90;37.41;53.19;;
76382;Laerm;65202;52.520;10.528;2023-08-21T03:39:39;41.70;36.24;52.76;;
76382;Laerm;65202;52.520;10.528;2023-08-21T03:42:07;43.69;36.97;51.87;;
76382;Laerm;65202;52.520;10.528;2023-08-21T03:44:34;44.18;36.77;53.79;;
76382;Laerm;65202;52.520;10.528;2023-08-21T03:47:01;44.02;37.78;52.01;;
76382;Laerm;65202;52.520;10.528;2023-08-21T03:49:28;43.13;36.85;51.87;;
76382;Laerm;65202;52.520;10.528;2023-08-21T03:51:56;44.70;36.39;55.61;;
76382;Laerm;65202;52.520;10.528;2023-08-21T03:54:23;45.20;37.89;53.42;;
76382;Laerm;65202;52.520;10.528;2023-08-21T03:56:50;44.35;38.87;66.48;;
76382;Laerm;65202;52.520;10.528;2023-08-21T03:59:17;44.62;37.90;61.01;;
76382;Laerm;65202;52.520;10.528;2023-08-21T04:01:45;44.97;38.57;57.50;;
76382;Laerm;65202;52.520;10.528;2023-08-21T04:04:12;45.81;38.61;56.48;;
76382;Laerm;65202;52.520;10.528;2023-08-21T04:06:39;45.72;38.64;56.07;;
76382;Laerm;65202;52.520;10.528;2023-08-21T04:09:06;47.42;38.65;57.17;;
76382;Laerm;65202;52.520;10.528;2023-08-21T04:11:34;47.62;39.15;59.64;;
76382;Laerm;65202;52.520;10.528;2023-08-21T04:14:01;48.32;39.39;61.07;;
76382;Laerm;65202;52.520;10.528;2023-08-21T04:16:29;47.92;39.73;56.17;;
76382;Laerm;65202;52.520;10.528;2023-08-21T04:18:57;45.88;36.40;59.32;;
76382;Laerm;65202;52.520;10.528;2023-08-21T04:21:24;43.97;36.97;59.32;;
76382;Laerm;65202;52.520;10.528;2023-08-21T04:23:52;44.00;35.75;63.54;;
76382;Laerm;65202;52.520;10.528;2023-08-21T04:26:20;44.06;36.26;60.05;;
76382;Laerm;65202;52.520;10.528;2023-08-21T04:28:47;43.89;36.54;55.62;;
76382;Laerm;65202;52.520;10.528;2023-08-21T04:31:15;44.49;37.56;62.40;;
76382;Laerm;65202;52.520;10.528;2023-08-21T04:33:42;45.57;37.51;60.96;;
76382;Laerm;65202;52.520;10.528;2023-08-21T04:36:18;44.81;37.42;60.07;;
76382;Laerm;65202;52.520;10.528;2023-08-21T04:38:45;42.93;36.79;60.30;;
76382;Laerm;65202;52.520;10.528;2023-08-21T04:41:13;45.27;36.81;59.82;;
76382;Laerm;65202;52.520;10.528;2023-08-21T04:43:40;42.69;37.34;58.00;;
76382;Laerm;65202;52.520;10.528;2023-08-21T04:46:07;42.53;37.16;51.85;;
76382;Laerm;65202;52.520;10.528;2023-08-21T04:48:34;42.12;36.66;52.42;;
76382;Laerm;65202;52.520;10.528;2023-08-21T04:51:02;45.09;37.02;60.79;;
76382;Laerm;65202;52.520;10.528;2023-08-21T04:53:29;43.39;37.42;58.59;;
76382;Laerm;65202;52.520;10.528;2023-08-21T04:56:00;44.56;37.06;61.02;;
76382;Laerm;65202;52.520;10.528;2023-08-21T04:58:27;43.31;36.51;58.53;;
76382;Laerm;65202;52.520;10.528;2023-08-21T05:00:55;42.71;36.90;52.55;;
76382;Laerm;65202;52.520;10.528;2023-08-21T05:03:22;46.78;37.05;63.48;;
76382;Laerm;65202;52.520;10.528;2023-08-21T05:05:54;42.26;35.75;56.28;;
76382;Laerm;65202;52.520;10.528;2023-08-21T05:08:24;47.81;38.40;63.03;;
76382;Laerm;65202;52.520;10.528;2023-08-21T05:11:00;43.29;36.94;52.63;;
76382;Laerm;65202;52.520;10.528;2023-08-21T05:13:27;43.30;35.44;54.52;;
76382;Laerm;65202;52.520;10.528;2023-08-21T05:15:56;43.78;36.56;56.57;;
76382;Laerm;65202;52.520;10.528;2023-08-21T05:18:25;46.24;36.19;61.85;;
76382;Laerm;65202;52.520;10.528;2023-08-21T05:20:55;43.38;36.49;58.37;;
76382;Laerm;65202;52.520;10.528;2023-08-21T05:23:22;46.86;35.92;62.60;;
76382;Laerm;65202;52.520;10.528;2023-08-21T05:25:50;47.38;38.69;59.35;;
76382;Laerm;65202;52.520;10.528;2023-08-21T05:28:17;43.74;37.34;55.80;;
76382;Laerm;65202;52.520;10.528;2023-08-21T05:30:47;48.71;37.63;62.01;;
76382;Laerm;65202;52.520;10.528;2023-08-21T05:33:15;42.65;36.72;51.60;;
76382;Laerm;65202;52.520;10.528;2023-08-21T05:35:43;42.13;37.48;53.24;;
76382;Laerm;65202;52.520;10.528;2023-08-21T05:38:10;46.33;36.87;60.05;;
76382;Laerm;65202;52.520;10.528;2023-08-21T05:40:37;42.52;36.91;53.48;;
76382;Laerm;65202;52.520;10.528;2023-08-21T05:43:05;43.07;35.84;64.06;;
76382;Laerm;65202;52.520;10.528;2023-08-21T05:45:32;46.78;36.13;60.31;;
76382;Laerm;65202;52.520;10.528;2023-08-21T05:47:59;42.60;36.15;53.50;;
76382;Laerm;65202;52.520;10.528;2023-08-21T05:50:26;46.81;36.13;70.77;;
76382;Laerm;65202;52.520;10.528;2023-08-21T05:52:54;42.40;35.87;53.90;;
76382;Laerm;65202;52.520;10.528;2023-08-21T05:55:21;43.68;35.34;61.61;;
76382;Laerm;65202;52.520;10.528;2023-08-21T05:57:49;43.99;35.66;66.51;;
76382;Laerm;65202;52.520;10.528;2023-08-21T06:00:17;45.52;35.69;63.59;;
76382;Laerm;65202;52.520;10.528;2023-08-21T06:02:44;44.98;35.97;61.06;;
76382;Laerm;65202;52.520;10.528;2023-08-21T06:05:12;43.76;35.52;59.65;;
76382;Laerm;65202;52.520;10.528;2023-08-21T06:07:39;51.10;38.52;68.90;;
76382;Laerm;65202;52.520;10.528;2023-08-21T06:10:10;46.70;35.24;62.98;;
76382;Laerm;65202;52.520;10.528;2023-08-21T06:12:41;44.76;36.34;53.65;;
76382;Laerm;65202;52.520;10.528;2023-08-21T06:15:09;47.21;37.42;61.24;;
76382;Laerm;65202;52.520;10.528;2023-08-21T06:17:37;44.71;35.49;57.84;;
76382;Laerm;65202;52.520;10.528;2023-08-21T06:20:06;44.63;35.98;60.17;;
76382;Laerm;65202;52.520;10.528;2023-08-21T06:22:35;44.22;35.45;57.95;;
76382;Laerm;65202;52.520;10.528;2023-08-21T06:25:04;45.81;35.10;57.49;;
76382;Laerm;65202;52.520;10.528;2023-08-21T06:27:31;50.52;34.76;64.59;;
76382;Laerm;65202;52.520;10.528;2023-08-21T06:30:11;49.11;35.72;65.72;;
76382;Laerm;65202;52.520;10.528;2023-08-21T06:32:38;49.10;35.12;64.06;;
76382;Laerm;65202;52.520;10.528;2023-08-21T06:35:06;42.66;34.76;58.69;;
76382;Laerm;65202;52.520;10.528;2023-08-21T06:37:34;41.69;33.45;59.52;;
76382;Laerm;65202;52.520;10.528;2023-08-21T06:40:01;41.62;34.59;59.47;;
76382;Laerm;65202;52.520;10.528;2023-08-21T06:42:28;48.44;34.66;65.39;;
76382;Laerm;65202;52.520;10.528;2023-08-21T06:44:56;51.71;34.72;71.16;;
76382;Laerm;65202;52.520;10.528;2023-08-21T06:47:23;46.56;35.08;63.34;;
76382;Laerm;65202;52.520;10.528;2023-08-21T06:49:50;42.68;34.69;53.35;;
76382;Laerm;65202;52.520;10.528;2023-08-21T06:52:18;50.94;35.96;68.01;;
76382;Laerm;65202;52.520;10.528;2023-08-21T06:54:45;42.45;34.69;54.69;;
76382;Laerm;65202;52.520;10.528;2023-08-21T06:57:12;41.40;34.25;56.43;;
76382;Laerm;65202;52.520;10.528;2023-08-21T06:59:39;40.13;34.17;52.36;;
76382;Laerm;65202;52.520;10.528;2023-08-21T07:02:08;41.62;34.13;53.33;;
76382;Laerm;65202;52.520;10.528;2023-08-21T07:04:35;40.92;33.96;52.53;;
76382;Laerm;65202;52.520;10.528;2023-08-21T07:07:02;49.19;36.46;65.92;;
76382;Laerm;65202;52.520;10.528;2023-08-21T07:09:30;61.06;37.59;68.46;;
76382;Laerm;65202;52.520;10.528;2023-08-21T07:11:57;53.74;44.38;61.95;;
76382;Laerm;65202;52.520;10.528;2023-08-21T07:14:24;58.54;48.19;68.31;;
76382;Laerm;65202;52.520;10.528;2023-08-21T07:16:52;49.21;40.82;56.17;;
76382;Laerm;65202;52.520;10.528;2023-08-21T07:19:19;50.05;38.62;66.33;;
76382;Laerm;65202;52.520;10.528;2023-08-21T07:21:46;51.49;43.20;63.97;;
76382;Laerm;65202;52.520;10.528;2023-08-21T07:24:13;49.62;39.03;60.57;;
76382;Laerm;65202;52.520;10.528;2023-08-21T07:26:41;70.89;45.66;81.72;;
76382;Laerm;65202;52.520;10.528;2023-08-21T07:29:08;48.36;35.88;63.62;;
76382;Laerm;65202;52.520;10.528;2023-08-21T07:31:35;44.21;36.12;57.26;;
76382;Laerm;65202;52.520;10.528;2023-08-21T07:34:03;47.35;34.28;65.43;;
76382;Laerm;65202;52.520;10.528;2023-08-21T07:36:32;45.99;36.19;62.14;;
76382;Laerm;65202;52.520;10.528;2023-08-21T07:38:59;48.02;36.73;68.43;;
76382;Laerm;65202;52.520;10.528;2023-08-21T07:41:27;42.53;34.73;53.76;;
76382;Laerm;65202;52.520;10.528;2023-08-21T07:43:54;42.74;34.33;53.79;;
76382;Laerm;65202;52.520;10.528;2023-08-21T07:46:21;41.14;34.68;53.21;;
76382;Laerm;65202;52.520;10.528;2023-08-21T07:48:49;48.47;34.98;67.19;;
76382;Laerm;65202;52.520;10.528;2023-08-21T07:51:16;49.48;35.31;69.53;;
76382;Laerm;65202;52.520;10.528;2023-08-21T07:53:44;42.50;34.88;54.31;;
76382;Laerm;65202;52.520;10.528;2023-08-21T07:56:11;42.22;35.27;53.16;;
76382;Laerm;65202;52.520;10.528;2023-08-21T07:58:38;41.44;34.44;52.52;;
76382;Laerm;65202;52.520;10.528;2023-08-21T08:01:06;41.72;34.07;54.13;;
76382;Laerm;65202;52.520;10.528;2023-08-21T08:03:33;49.19;35.05;66.13;;
76382;Laerm;65202;52.520;10.528;2023-08-21T08:06:00;42.68;35.09;56.53;;
76382;Laerm;65202;52.520;10.528;2023-08-21T08:08:27;42.26;35.30;53.42;;
76382;Laerm;65202;52.520;10.528;2023-08-21T08:11:03;41.84;34.71;53.96;;
76382;Laerm;65202;52.520;10.528;2023-08-21T08:13:32;51.91;34.87;70.21;;
76382;Laerm;65202;52.520;10.528;2023-08-21T08:15:59;42.50;34.20;57.62;;
76382;Laerm;65202;52.520;10.528;2023-08-21T08:18:26;42.87;33.44;57.84;;
76382;Laerm;65202;52.520;10.528;2023-08-21T08:20:54;49.24;36.17;71.98;;
76382;Laerm;65202;52.520;10.528;2023-08-21T08:23:21;47.40;35.64;59.49;;
76382;Laerm;65202;52.520;10.528;2023-08-21T08:25:50;42.34;34.82;58.12;;
76382;Laerm;65202;52.520;10.528;2023-08-21T08:28:17;44.18;34.69;57.94;;
76382;Laerm;65202;52.520;10.528;2023-08-21T08:30:45;41.80;34.36;54.04;;
76382;Laerm;65202;52.520;10.528;2023-08-21T08:33:13;48.85;35.02;67.51;;
76382;Laerm;65202;52.520;10.528;2023-08-21T08:35:40;48.43;38.97;71.27;;
76382;Laerm;65202;52.520;10.528;2023-08-21T08:38:08;47.62;36.20;62.55;;
76382;Laerm;65202;52.520;10.528;2023-08-21T08:40:43;47.11;37.15;60.14;;
76382;Laerm;65202;52.520;10.528;2023-08-21T08:43:12;49.55;37.73;63.88;;
76382;Laerm;65202;52.520;10.528;2023-08-21T08:45:41;49.78;35.95;64.91;;
76382;Laerm;65202;52.520;10.528;2023-08-21T08:48:10;55.14;40.52;67.29;;
76382;Laerm;65202;52.520;10.528;2023-08-21T08:50:38;56.96;48.08;67.06;;
76382;Laerm;65202;52.520;10.528;2023-08-21T08:53:07;68.96;53.74;82.94;;
76382;Laerm;65202;52.520;10.528;2023-08-21T08:55:44;74.27;53.99;83.84;;
76382;Laerm;65202;52.520;10.528;2023-08-21T08:58:12;65.52;49.75;77.46;;
76382;Laerm;65202;52.520;10.528;2023-08-21T09:00:39;61.45;36.81;73.97;;
76382;Laerm;65202;52.520;10.528;2023-08-21T09:03:07;43.23;35.03;56.98;;
76382;Laerm;65202;52.520;10.528;2023-08-21T09:05:36;71.48;35.53;80.44;;
76382;Laerm;65202;52.520;10.528;2023-08-21T09:08:13;59.79;37.58;74.64;;
76382;Laerm;65202;52.520;10.528;2023-08-21T09:10:42;56.04;34.53;70.48;;
76382;Laerm;65202;52.520;10.528;2023-08-21T09:13:15;50.69;34.92;68.63;;
76382;Laerm;65202;52.520;10.528;2023-08-21T09:15:54;75.28;35.03;84.77;;
76382;Laerm;65202;52.520;10.528;2023-08-21T09:18:22;50.97;35.44;63.97;;
76382;Laerm;65202;52.520;10.528;2023-08-21T09:20:50;50.61;45.10;57.74;;
76382;Laerm;65202;52.520;10.528;2023-08-21T09:23:18;49.44;39.51;68.70;;
76382;Laerm;65202;52.520;10.528;2023-08-21T09:25:48;45.21;38.60;55.64;;
76382;Laerm;65202;52.520;10.528;2023-08-21T09:28:20;44.80;35.15;57.45;;
76382;Laerm;65202;52.520;10.528;2023-08-21T09:30:54;40.45;34.36;61.89;;
76382;Laerm;65202;52.520;10.528;2023-08-21T09:33:24;50.44;35.29;61.34;;
76382;Laerm;65202;52.520;10.528;2023-08-21T09:35:52;48.52;34.96;68.85;;
76382;Laerm;65202;52.520;10.528;2023-08-21T09:38:20;49.28;36.42;65.90;;
76382;Laerm;65202;52.520;10.528;2023-08-21T09:40:54;63.03;43.07;75.22;;
76382;Laerm;65202;52.520;10.528;2023-08-21T09:43:23;55.03;39.90;64.21;;
76382;Laerm;65202;52.520;10.528;2023-08-21T09:45:55;64.94;54.25;72.43;;
76382;Laerm;65202;52.520;10.528;2023-08-21T09:48:25;61.50;35.79;72.35;;
76382;Laerm;65202;52.520;10.528;2023-08-21T09:50:56;60.79;35.16;69.08;;
76382;Laerm;65202;52.520;10.528;2023-08-21T09:53:24;69.33;57.35;79.19;;
76382;Laerm;65202;52.520;10.528;2023-08-21T09:55:55;76.49;60.12;85.08;;
76382;Laerm;65202;52.520;10.528;2023-08-21T09:58:23;78.03;64.03;89.33;;
76382;Laerm;65202;52.520;10.528;2023-08-21T10:00:52;78.50;60.64;89.21;;
76382;Laerm;65202;52.520;10.528;2023-08-21T10:03:23;75.70;61.52;88.76;;
76382;Laerm;65202;52.520;10.528;2023-08-21T10:05:56;79.28;65.34;86.94;;
76382;Laerm;65202;52.520;10.528;2023-08-21T10:08:26;78.43;62.03;86.36;;
76382;Laerm;65202;52.520;10.528;2023-08-21T10:10:55;52.06;38.66;63.54;;
76382;Laerm;65202;52.520;10.528;2023-08-21T10:13:23;51.61;44.11;62.62;;
76382;Laerm;65202;52.520;10.528;2023-08-21T10:15:51;65.78;40.21;89.58;;
76382;Laerm;65202;52.520;10.528;2023-08-21T10:18:23;55.71;37.80;69.15;;
76382;Laerm;65202;52.520;10.528;2023-08-21T10:20:52;67.88;39.26;88.92;;
76382;Laerm;65202;52.520;10.528;2023-08-21T10:23:30;46.17;35.43;57.52;;
76382;Laerm;65202;52.520;10.528;2023-08-21T10:26:01;41.61;34.21;55.70;;
76382;Laerm;65202;52.520;10.528;2023-08-21T10:29:02;49.56;34.16;61.29;;
76382;Laerm;65202;52.520;10.528;2023-08-21T10:31:31;47.73;38.86;60.38;;
76382;Laerm;65202;52.520;10.528;2023-08-21T10:39:21;48.74;36.70;62.47;;
76382;Laerm;65202;52.520;10.528;2023-08-21T10:42:10;44.42;36.71;56.31;;
76382;Laerm;65202;52.520;10.528;2023-08-21T10:49:46;45.72;37.08;57.11;;
76382;Laerm;65202;52.520;10.528;2023-08-21T10:52:24;48.47;39.05;63.84;;
76382;Laerm;65202;52.520;10.528;2023-08-21T10:54:55;50.56;38.18;69.00;;
76382;Laerm;65202;52.520;10.528;2023-08-21T10:57:28;45.35;37.66;59.98;;
76382;Laerm;65202;52.520;10.528;2023-08-21T11:00:14;44.66;38.37;55.34;;
76382;Laerm;65202;52.520;10.528;2023-08-21T11:02:44;45.65;40.11;57.65;;
76382;Laerm;65202;52.520;10.528;2023-08-21T11:05:15;45.34;34.92;58.48;;
76382;Laerm;65202;52.520;10.528;2023-08-21T11:07:46;46.29;34.70;59.47;;
76382;Laerm;65202;52.520;10.528;2023-08-21T11:10:22;45.99;35.27;60.71;;
76382;Laerm;65202;52.520;10.528;2023-08-21T11:12:55;49.71;41.74;62.52;;
76382;Laerm;65202;52.520;10.528;2023-08-21T11:15:25;53.12;39.98;67.94;;
76382;Laerm;65202;52.520;10.528;2023-08-21T11:18:01;46.34;35.25;62.42;;
76382;Laerm;65202;52.520;10.528;2023-08-21T11:20:36;49.63;34.91;64.80;;
76382;Laerm;65202;52.520;10.528;2023-08-21T11:23:06;48.94;35.26;63.31;;
76382;Laerm;65202;52.520;10.528;2023-08-21T11:25:39;47.91;34.42;67.95;;
76382;Laerm;65202;52.520;10.528;2023-08-21T11:28:07;42.52;34.98;59.00;;
76382;Laerm;65202;52.520;10.528;2023-08-21T11:30:36;44.73;35.08;57.46;;
76382;Laerm;65202;52.520;10.528;2023-08-21T11:33:13;48.06;34.61;61.01;;
76382;Laerm;65202;52.520;10.528;2023-08-21T11:35:41;44.69;34.72;60.72;;
76382;Laerm;65202;52.520;10.528;2023-08-21T11:38:17;42.25;34.81;55.72;;
76382;Laerm;65202;52.520;10.528;2023-08-21T11:41:04;46.76;35.07;62.41;;
76382;Laerm;65202;52.520;10.528;2023-08-21T11:43:37;46.21;35.05;61.03;;
76382;Laerm;65202;52.520;10.528;2023-08-21T11:46:06;45.94;35.37;62.11;;
76382;Laerm;65202;52.520;10.528;2023-08-21T11:48:38;47.48;34.88;62.75;;
76382;Laerm;65202;52.520;10.528;2023-08-21T11:51:06;42.73;34.36;61.73;;
76382;Laerm;65202;52.520;10.528;2023-08-21T11:53:42;46.29;35.57;61.89;;
76382;Laerm;65202;52.520;10.528;2023-08-21T11:56:12;45.65;35.08;66.38;;
76382;Laerm;65202;52.520;10.528;2023-08-21T11:58:42;44.84;34.66;63.94;;
76382;Laerm;65202;52.520;10.528;2023-08-21T12:01:09;52.15;34.68;73.43;;
76382;Laerm;65202;52.520;10.528;2023-08-21T12:03:39;47.23;35.48;62.20;;
76382;Laerm;65202;52.520;10.528;2023-08-21T12:06:08;45.23;34.84;58.94;;
76382;Laerm;65202;52.520;10.528;2023-08-21T12:08:40;47.08;34.26;62.91;;
76382;Laerm;65202;52.520;10.528;2023-08-21T12:11:07;50.09;35.20;65.35;;
76382;Laerm;65202;52.520;10.528;2023-08-21T12:13:35;55.01;35.07;70.79;;
76382;Laerm;65202;52.520;10.528;2023-08-21T12:16:03;44.58;34.60;60.95;;
76382;Laerm;65202;52.520;10.528;2023-08-21T12:18:31;42.31;34.16;54.08;;
76382;Laerm;65202;52.520;10.528;2023-08-21T12:20:58;44.57;35.71;55.07;;
76382;Laerm;65202;52.520;10.528;2023-08-21T12:23:25;50.16;34.78;68.04;;
76382;Laerm;65202;52.520;10.528;2023-08-21T12:25:53;42.40;34.63;53.77;;
76382;Laerm;65202;52.520;10.528;2023-08-21T12:28:20;42.28;34.86;54.74;;
76382;Laerm;65202;52.520;10.528;2023-08-21T12:30:47;42.67;35.44;60.43;;
76382;Laerm;65202;52.520;10.528;2023-08-21T12:33:14;46.59;35.16;60.25;;
76382;Laerm;65202;52.520;10.528;2023-08-21T12:35:50;45.79;34.88;57.75;;
76382;Laerm;65202;52.520;10.528;2023-08-21T12:38:18;44.18;38.17;56.32;;
76382;Laerm;65202;52.520;10.528;2023-08-21T12:40:45;44.76;37.18;54.46;;
76382;Laerm;65202;52.520;10.528;2023-08-21T12:43:12;48.80;40.01;64.11;;
76382;Laerm;65202;52.520;10.528;2023-08-21T12:45:40;47.94;38.71;59.06;;
76382;Laerm;65202;52.520;10.528;2023-08-21T12:48:07;45.06;37.89;57.02;;
76382;Laerm;65202;52.520;10.528;2023-08-21T12:50:35;44.69;38.36;60.33;;
76382;Laerm;65202;52.520;10.528;2023-08-21T12:53:03;44.80;37.29;54.76;;
76382;Laerm;65202;52.520;10.528;2023-08-21T12:55:30;44.60;37.94;53.83;;
76382;Laerm;65202;52.520;10.528;2023-08-21T12:57:57;52.53;38.87;70.51;;
76382;Laerm;65202;52.520;10.528;2023-08-21T13:00:25;48.51;39.59;59.79;;
76382;Laerm;65202;52.520;10.528;2023-08-21T13:02:52;48.04;39.33;67.26;;
76382;Laerm;65202;52.520;10.528;2023-08-21T13:05:19;45.34;37.17;57.34;;
76382;Laerm;65202;52.520;10.528;2023-08-21T13:07:47;48.16;38.38;69.19;;
76382;Laerm;65202;52.520;10.528;2023-08-21T13:10:14;43.74;37.17;60.98;;
76382;Laerm;65202;52.520;10.528;2023-08-21T13:12:41;45.46;37.24;57.68;;
76382;Laerm;65202;52.520;10.528;2023-08-21T13:15:10;43.90;37.57;55.11;;
76382;Laerm;65202;52.520;10.528;2023-08-21T13:17:37;42.98;35.50;54.17;;
76382;Laerm;65202;52.520;10.528;2023-08-21T13:20:05;43.40;34.62;56.97;;
76382;Laerm;65202;52.520;10.528;2023-08-21T13:22:45;43.57;34.41;58.94;;
76382;Laerm;65202;52.520;10.528;2023-08-21T13:25:13;43.83;37.36;54.23;;
76382;Laerm;65202;52.520;10.528;2023-08-21T13:27:41;49.18;36.42;61.88;;
76382;Laerm;65202;52.520;10.528;2023-08-21T13:30:09;47.55;36.79;60.55;;
76382;Laerm;65202;52.520;10.528;2023-08-21T13:32:36;43.52;37.45;55.24;;
76382;Laerm;65202;52.520;10.528;2023-08-21T13:35:04;43.46;36.31;55.23;;
76382;Laerm;65202;52.520;10.528;2023-08-21T13:37:35;48.58;36.64;66.22;;
76382;Laerm;65202;52.520;10.528;2023-08-21T13:40:05;45.45;36.46;58.17;;
76382;Laerm;65202;52.520;10.528;2023-08-21T13:42:46;47.79;36.35;63.06;;
76382;Laerm;65202;52.520;10.528;2023-08-21T13:45:18;45.70;34.62;61.59;;
76382;Laerm;65202;52.520;10.528;2023-08-21T13:47:48;51.50;36.28;69.63;;
76382;Laerm;65202;52.520;10.528;2023-08-21T13:50:18;47.21;36.08;65.49;;
76382;Laerm;65202;52.520;10.528;2023-08-21T13:52:47;48.83;36.17;62.79;;
76382;Laerm;65202;52.520;10.528;2023-08-21T13:55:15;42.39;35.82;53.53;;
76382;Laerm;65202;52.520;10.528;2023-08-21T13:57:45;44.83;36.12;56.38;;
76382;Laerm;65202;52.520;10.528;2023-08-21T14:00:13;42.29;35.20;54.33;;